sensor_id;sensor_type;location;lat;lon;timestamp;P1;durP1;ratioP1;P2;durP2;ratioP2
64052;SDS011;50299;49.524;8.536;2022-08-20T00:02:20;8.07;;;7.07;;
64052;SDS011;50299;49.524;8.536;2022-08-20T00:04:47;6.78;;;6.10;;
64052;SDS011;50299;49.524;8.536;2022-08-20T00:07:13;8.02;;;6.15;;
64052;SDS011;50299;49.524;8.536;2022-08-20T00:09:40;7.53;;;6.88;;
64052;SDS011;50299;49.524;8.536;2022-08-20T00:12:08;7.10;;;6.40;;
64052;SDS011;50299;49.524;8.536;2022-08-20T00:14:35;6.80;;;6.10;;
64052;SDS011;50299;49.524;8.536;2022-08-20T00:17:03;6.30;;;5.75;;
64052;SDS011;50299;49.524;8.536;2022-08-20T00:19:34;5.82;;;5.32;;
64052;SDS011;50299;49.524;8.536;2022-08-20T00:22:00;5.45;;;4.95;;
64052;SDS011;50299;49.524;8.536;2022-08-20T00:24:27;7.35;;;6.65;;
64052;SDS011;50299;49.524;8.536;2022-08-20T00:26:53;7.47;;;6.32;;
64052;SDS011;50299;49.524;8.536;2022-08-20T00:29:20;8.57;;;7.78;;
64052;SDS011;50299;49.524;8.536;2022-08-20T00:31:47;7.85;;;6.75;;
64052;SDS011;50299;49.524;8.536;2022-08-20T00:34:15;8.15;;;6.82;;
64052;SDS011;50299;49.524;8.536;2022-08-20T00:36:42;7.15;;;6.40;;
64052;SDS011;50299;49.524;8.536;2022-08-20T00:39:09;7.15;;;6.45;;
64052;SDS011;50299;49.524;8.536;2022-08-20T00:41:35;7.20;;;6.45;;
64052;SDS011;50299;49.524;8.536;2022-08-20T00:44:04;8.13;;;6.35;;
64052;SDS011;50299;49.524;8.536;2022-08-20T00:46:33;8.05;;;7.25;;
64052;SDS011;50299;49.524;8.536;2022-08-20T00:49:00;6.82;;;6.13;;
64052;SDS011;50299;49.524;8.536;2022-08-20T00:56:46;7.35;;;5.97;;
64052;SDS011;50299;49.524;8.536;2022-08-20T00:59:22;7.53;;;6.88;;
64052;SDS011;50299;49.524;8.536;2022-08-20T01:01:52;8.02;;;6.30;;
64052;SDS011;50299;49.524;8.536;2022-08-20T01:04:22;7.35;;;6.63;;
64052;SDS011;50299;49.524;8.536;2022-08-20T01:06:54;7.90;;;7.20;;
64052;SDS011;50299;49.524;8.536;2022-08-20T01:09:21;6.80;;;5.97;;
64052;SDS011;50299;49.524;8.536;2022-08-20T01:12:09;8.23;;;7.43;;
64052;SDS011;50299;49.524;8.536;2022-08-20T01:14:35;6.97;;;6.35;;
64052;SDS011;50299;49.524;8.536;2022-08-20T01:17:13;6.07;;;5.47;;
64052;SDS011;50299;49.524;8.536;2022-08-20T01:19:48;6.82;;;5.93;;
64052;SDS011;50299;49.524;8.536;2022-08-20T01:22:21;5.90;;;5.28;;
64052;SDS011;50299;49.524;8.536;2022-08-20T01:25:19;5.18;;;4.50;;
64052;SDS011;50299;49.524;8.536;2022-08-20T01:27:53;6.20;;;5.60;;
64052;SDS011;50299;49.524;8.536;2022-08-20T01:30:22;6.75;;;6.10;;
64052;SDS011;50299;49.524;8.536;2022-08-20T01:32:51;5.75;;;5.15;;
64052;SDS011;50299;49.524;8.536;2022-08-20T01:35:21;6.72;;;5.70;;
64052;SDS011;50299;49.524;8.536;2022-08-20T01:37:49;5.82;;;5.10;;
64052;SDS011;50299;49.524;8.536;2022-08-20T01:40:16;7.25;;;6.65;;
64052;SDS011;50299;49.524;8.536;2022-08-20T01:42:56;5.65;;;5.05;;
64052;SDS011;50299;49.524;8.536;2022-08-20T01:45:25;6.18;;;5.63;;
64052;SDS011;50299;49.524;8.536;2022-08-20T01:47:55;5.10;;;4.68;;
64052;SDS011;50299;49.524;8.536;2022-08-20T01:50:23;6.45;;;5.10;;
64052;SDS011;50299;49.524;8.536;2022-08-20T01:55:49;5.68;;;4.43;;
64052;SDS011;50299;49.524;8.536;2022-08-20T01:58:15;5.38;;;4.85;;
64052;SDS011;50299;49.524;8.536;2022-08-20T02:00:42;5.75;;;4.95;;
64052;SDS011;50299;49.524;8.536;2022-08-20T02:03:09;7.45;;;4.22;;
64052;SDS011;50299;49.524;8.536;2022-08-20T02:05:35;5.38;;;4.72;;
64052;SDS011;50299;49.524;8.536;2022-08-20T02:08:02;5.75;;;5.15;;
64052;SDS011;50299;49.524;8.536;2022-08-20T02:10:30;6.22;;;5.05;;
64052;SDS011;50299;49.524;8.536;2022-08-20T02:12:58;6.30;;;5.07;;
64052;SDS011;50299;49.524;8.536;2022-08-20T02:15:25;5.78;;;5.22;;
64052;SDS011;50299;49.524;8.536;2022-08-20T02:18:02;5.43;;;4.18;;
64052;SDS011;50299;49.524;8.536;2022-08-20T02:20:33;5.85;;;5.35;;
64052;SDS011;50299;49.524;8.536;2022-08-20T02:23:01;6.22;;;5.68;;
64052;SDS011;50299;49.524;8.536;2022-08-20T02:25:29;6.22;;;5.65;;
64052;SDS011;50299;49.524;8.536;2022-08-20T02:28:00;6.30;;;5.68;;
64052;SDS011;50299;49.524;8.536;2022-08-20T02:30:30;5.32;;;4.88;;
64052;SDS011;50299;49.524;8.536;2022-08-20T02:33:01;6.70;;;6.05;;
64052;SDS011;50299;49.524;8.536;2022-08-20T02:35:30;5.35;;;4.57;;
64052;SDS011;50299;49.524;8.536;2022-08-20T02:37:59;5.10;;;4.70;;
64052;SDS011;50299;49.524;8.536;2022-08-20T02:40:26;6.15;;;5.65;;
64052;SDS011;50299;49.524;8.536;2022-08-20T02:42:57;5.82;;;5.32;;
64052;SDS011;50299;49.524;8.536;2022-08-20T02:45:24;6.65;;;6.03;;
64052;SDS011;50299;49.524;8.536;2022-08-20T02:47:51;6.65;;;6.05;;
64052;SDS011;50299;49.524;8.536;2022-08-20T02:50:19;5.22;;;4.72;;
64052;SDS011;50299;49.524;8.536;2022-08-20T02:52:48;5.55;;;4.78;;
64052;SDS011;50299;49.524;8.536;2022-08-20T02:55:17;6.32;;;4.68;;
64052;SDS011;50299;49.524;8.536;2022-08-20T02:57:54;5.88;;;5.38;;
64052;SDS011;50299;49.524;8.536;2022-08-20T03:00:24;5.43;;;4.90;;
64052;SDS011;50299;49.524;8.536;2022-08-20T03:02:50;7.00;;;4.68;;
64052;SDS011;50299;49.524;8.536;2022-08-20T03:05:17;5.75;;;5.25;;
64052;SDS011;50299;49.524;8.536;2022-08-20T03:07:44;6.45;;;5.15;;
64052;SDS011;50299;49.524;8.536;2022-08-20T03:10:13;6.10;;;5.38;;
64052;SDS011;50299;49.524;8.536;2022-08-20T03:12:40;6.30;;;5.70;;
64052;SDS011;50299;49.524;8.536;2022-08-20T03:15:07;5.97;;;5.38;;
64052;SDS011;50299;49.524;8.536;2022-08-20T03:17:43;5.65;;;5.15;;
64052;SDS011;50299;49.524;8.536;2022-08-20T03:20:10;5.53;;;4.93;;
64052;SDS011;50299;49.524;8.536;2022-08-20T03:22:38;7.35;;;5.57;;
64052;SDS011;50299;49.524;8.536;2022-08-20T03:25:05;5.60;;;5.10;;
64052;SDS011;50299;49.524;8.536;2022-08-20T03:27:33;5.68;;;5.18;;
64052;SDS011;50299;49.524;8.536;2022-08-20T03:30:03;9.07;;;6.55;;
64052;SDS011;50299;49.524;8.536;2022-08-20T03:32:32;7.70;;;6.28;;
64052;SDS011;50299;49.524;8.536;2022-08-20T03:34:59;7.78;;;6.75;;
64052;SDS011;50299;49.524;8.536;2022-08-20T03:37:32;7.28;;;6.57;;
64052;SDS011;50299;49.524;8.536;2022-08-20T03:40:05;7.65;;;6.90;;
64052;SDS011;50299;49.524;8.536;2022-08-20T03:42:34;8.02;;;7.20;;
64052;SDS011;50299;49.524;8.536;2022-08-20T03:45:01;7.28;;;6.57;;
64052;SDS011;50299;49.524;8.536;2022-08-20T03:47:27;7.03;;;6.43;;
64052;SDS011;50299;49.524;8.536;2022-08-20T03:49:57;8.55;;;6.97;;
64052;SDS011;50299;49.524;8.536;2022-08-20T03:52:25;7.57;;;6.47;;
64052;SDS011;50299;49.524;8.536;2022-08-20T03:54:54;8.25;;;7.38;;
64052;SDS011;50299;49.524;8.536;2022-08-20T03:57:21;6.97;;;6.25;;
64052;SDS011;50299;49.524;8.536;2022-08-20T03:59:48;6.90;;;6.20;;
64052;SDS011;50299;49.524;8.536;2022-08-20T04:02:24;9.38;;;7.80;;
64052;SDS011;50299;49.524;8.536;2022-08-20T04:04:50;8.38;;;6.00;;
64052;SDS011;50299;49.524;8.536;2022-08-20T04:07:23;7.75;;;6.53;;
64052;SDS011;50299;49.524;8.536;2022-08-20T04:09:51;6.93;;;6.32;;
64052;SDS011;50299;49.524;8.536;2022-08-20T04:12:19;7.70;;;6.90;;
64052;SDS011;50299;49.524;8.536;2022-08-20T04:14:47;6.90;;;6.22;;
64052;SDS011;50299;49.524;8.536;2022-08-20T04:17:15;8.05;;;6.38;;
64052;SDS011;50299;49.524;8.536;2022-08-20T04:19:44;8.13;;;6.80;;
64052;SDS011;50299;49.524;8.536;2022-08-20T04:22:12;8.10;;;7.03;;
64052;SDS011;50299;49.524;8.536;2022-08-20T04:24:39;7.75;;;7.03;;
64052;SDS011;50299;49.524;8.536;2022-08-20T04:27:08;7.95;;;5.97;;
64052;SDS011;50299;49.524;8.536;2022-08-20T04:29:35;6.55;;;5.88;;
64052;SDS011;50299;49.524;8.536;2022-08-20T04:32:03;6.85;;;6.18;;
64052;SDS011;50299;49.524;8.536;2022-08-20T04:34:31;6.45;;;5.75;;
64052;SDS011;50299;49.524;8.536;2022-08-20T04:36:58;7.80;;;6.55;;
64052;SDS011;50299;49.524;8.536;2022-08-20T04:39:24;9.70;;;6.22;;
64052;SDS011;50299;49.524;8.536;2022-08-20T04:41:51;6.72;;;6.05;;
64052;SDS011;50299;49.524;8.536;2022-08-20T04:44:18;5.65;;;5.13;;
64052;SDS011;50299;49.524;8.536;2022-08-20T04:46:47;6.82;;;6.22;;
64052;SDS011;50299;49.524;8.536;2022-08-20T04:49:13;6.32;;;5.72;;
64052;SDS011;50299;49.524;8.536;2022-08-20T04:51:40;7.05;;;6.55;;
64052;SDS011;50299;49.524;8.536;2022-08-20T04:54:06;6.90;;;6.30;;
64052;SDS011;50299;49.524;8.536;2022-08-20T04:56:33;6.72;;;6.18;;
64052;SDS011;50299;49.524;8.536;2022-08-20T04:59:04;5.63;;;5.13;;
64052;SDS011;50299;49.524;8.536;2022-08-20T05:01:32;5.32;;;4.82;;
64052;SDS011;50299;49.524;8.536;2022-08-20T05:03:58;5.53;;;4.70;;
64052;SDS011;50299;49.524;8.536;2022-08-20T05:06:29;5.43;;;4.93;;
64052;SDS011;50299;49.524;8.536;2022-08-20T05:08:57;6.40;;;5.38;;
64052;SDS011;50299;49.524;8.536;2022-08-20T05:11:25;5.88;;;5.38;;
64052;SDS011;50299;49.524;8.536;2022-08-20T05:14:00;5.25;;;4.85;;
64052;SDS011;50299;49.524;8.536;2022-08-20T05:16:27;4.65;;;4.15;;
64052;SDS011;50299;49.524;8.536;2022-08-20T05:18:53;4.60;;;3.85;;
64052;SDS011;50299;49.524;8.536;2022-08-20T05:21:20;5.57;;;4.82;;
64052;SDS011;50299;49.524;8.536;2022-08-20T05:23:47;4.28;;;3.88;;
64052;SDS011;50299;49.524;8.536;2022-08-20T05:26:15;4.82;;;4.40;;
64052;SDS011;50299;49.524;8.536;2022-08-20T05:28:42;5.45;;;4.85;;
64052;SDS011;50299;49.524;8.536;2022-08-20T05:31:26;4.97;;;4.47;;
64052;SDS011;50299;49.524;8.536;2022-08-20T05:34:06;6.65;;;4.65;;
64052;SDS011;50299;49.524;8.536;2022-08-20T05:36:48;4.35;;;3.90;;
64052;SDS011;50299;49.524;8.536;2022-08-20T05:39:19;4.40;;;4.00;;
64052;SDS011;50299;49.524;8.536;2022-08-20T05:41:52;5.00;;;4.50;;
64052;SDS011;50299;49.524;8.536;2022-08-20T05:44:22;3.42;;;3.13;;
64052;SDS011;50299;49.524;8.536;2022-08-20T05:46:49;4.82;;;3.50;;
64052;SDS011;50299;49.524;8.536;2022-08-20T05:49:16;4.47;;;3.90;;
64052;SDS011;50299;49.524;8.536;2022-08-20T05:51:45;4.05;;;3.65;;
64052;SDS011;50299;49.524;8.536;2022-08-20T05:54:12;6.47;;;4.35;;
64052;SDS011;50299;49.524;8.536;2022-08-20T05:56:39;4.55;;;4.15;;
64052;SDS011;50299;49.524;8.536;2022-08-20T05:59:07;5.00;;;4.50;;
64052;SDS011;50299;49.524;8.536;2022-08-20T06:01:35;5.20;;;3.25;;
64052;SDS011;50299;49.524;8.536;2022-08-20T06:04:03;5.03;;;3.40;;
64052;SDS011;50299;49.524;8.536;2022-08-20T06:07:10;4.15;;;3.75;;
64052;SDS011;50299;49.524;8.536;2022-08-20T06:09:40;4.50;;;3.67;;
64052;SDS011;50299;49.524;8.536;2022-08-20T06:12:09;4.88;;;4.10;;
64052;SDS011;50299;49.524;8.536;2022-08-20T06:14:36;5.57;;;4.05;;
64052;SDS011;50299;49.524;8.536;2022-08-20T06:17:04;3.80;;;3.50;;
64052;SDS011;50299;49.524;8.536;2022-08-20T06:19:35;5.78;;;3.80;;
64052;SDS011;50299;49.524;8.536;2022-08-20T06:22:27;4.22;;;3.63;;
64052;SDS011;50299;49.524;8.536;2022-08-20T06:24:54;3.97;;;3.53;;
64052;SDS011;50299;49.524;8.536;2022-08-20T06:27:20;2.97;;;2.75;;
64052;SDS011;50299;49.524;8.536;2022-08-20T06:29:47;3.47;;;3.28;;
64052;SDS011;50299;49.524;8.536;2022-08-20T06:32:15;7.60;;;3.72;;
64052;SDS011;50299;49.524;8.536;2022-08-20T06:34:42;3.53;;;3.33;;
64052;SDS011;50299;49.524;8.536;2022-08-20T06:37:20;3.90;;;3.40;;
64052;SDS011;50299;49.524;8.536;2022-08-20T06:39:58;6.22;;;3.50;;
64052;SDS011;50299;49.524;8.536;2022-08-20T06:42:27;3.35;;;3.05;;
64052;SDS011;50299;49.524;8.536;2022-08-20T06:44:54;3.40;;;3.20;;
64052;SDS011;50299;49.524;8.536;2022-08-20T06:47:21;4.03;;;3.63;;
64052;SDS011;50299;49.524;8.536;2022-08-20T06:49:47;2.88;;;2.67;;
64052;SDS011;50299;49.524;8.536;2022-08-20T06:52:14;3.53;;;3.22;;
64052;SDS011;50299;49.524;8.536;2022-08-20T06:54:42;3.65;;;3.35;;
64052;SDS011;50299;49.524;8.536;2022-08-20T06:57:10;3.28;;;2.88;;
64052;SDS011;50299;49.524;8.536;2022-08-20T06:59:36;3.00;;;2.80;;
64052;SDS011;50299;49.524;8.536;2022-08-20T07:02:03;3.47;;;3.17;;
64052;SDS011;50299;49.524;8.536;2022-08-20T07:04:29;3.50;;;3.20;;
64052;SDS011;50299;49.524;8.536;2022-08-20T07:06:56;3.13;;;2.92;;
64052;SDS011;50299;49.524;8.536;2022-08-20T07:09:23;3.00;;;2.80;;
64052;SDS011;50299;49.524;8.536;2022-08-20T07:11:51;2.85;;;2.65;;
64052;SDS011;50299;49.524;8.536;2022-08-20T07:14:18;3.03;;;2.83;;
64052;SDS011;50299;49.524;8.536;2022-08-20T07:16:45;2.13;;;1.90;;
64052;SDS011;50299;49.524;8.536;2022-08-20T07:19:12;3.28;;;2.92;;
64052;SDS011;50299;49.524;8.536;2022-08-20T07:21:39;2.28;;;2.13;;
64052;SDS011;50299;49.524;8.536;2022-08-20T07:24:06;2.78;;;2.58;;
64052;SDS011;50299;49.524;8.536;2022-08-20T07:26:34;2.58;;;2.20;;
64052;SDS011;50299;49.524;8.536;2022-08-20T07:29:01;3.53;;;3.22;;
64052;SDS011;50299;49.524;8.536;2022-08-20T07:31:27;3.25;;;3.05;;
64052;SDS011;50299;49.524;8.536;2022-08-20T07:34:13;3.05;;;2.85;;
64052;SDS011;50299;49.524;8.536;2022-08-20T07:36:39;2.97;;;2.78;;
64052;SDS011;50299;49.524;8.536;2022-08-20T07:39:06;3.58;;;2.67;;
64052;SDS011;50299;49.524;8.536;2022-08-20T07:41:34;2.55;;;2.35;;
64052;SDS011;50299;49.524;8.536;2022-08-20T07:44:01;2.65;;;2.20;;
64052;SDS011;50299;49.524;8.536;2022-08-20T07:46:27;3.55;;;2.53;;
64052;SDS011;50299;49.524;8.536;2022-08-20T07:48:56;2.45;;;2.25;;
64052;SDS011;50299;49.524;8.536;2022-08-20T07:51:23;2.80;;;2.60;;
64052;SDS011;50299;49.524;8.536;2022-08-20T07:53:50;3.15;;;2.85;;
64052;SDS011;50299;49.524;8.536;2022-08-20T07:56:18;3.08;;;2.50;;
64052;SDS011;50299;49.524;8.536;2022-08-20T07:58:51;2.83;;;2.65;;
64052;SDS011;50299;49.524;8.536;2022-08-20T08:01:21;3.28;;;2.67;;
64052;SDS011;50299;49.524;8.536;2022-08-20T08:03:51;3.17;;;2.88;;
64052;SDS011;50299;49.524;8.536;2022-08-20T08:06:18;3.03;;;2.72;;
64052;SDS011;50299;49.524;8.536;2022-08-20T08:09:06;2.78;;;2.60;;
64052;SDS011;50299;49.524;8.536;2022-08-20T08:11:37;3.13;;;2.03;;
64052;SDS011;50299;49.524;8.536;2022-08-20T08:14:12;3.05;;;2.80;;
64052;SDS011;50299;49.524;8.536;2022-08-20T08:16:42;2.78;;;2.58;;
64052;SDS011;50299;49.524;8.536;2022-08-20T08:19:11;3.38;;;2.97;;
64052;SDS011;50299;49.524;8.536;2022-08-20T08:21:40;3.38;;;3.10;;
64052;SDS011;50299;49.524;8.536;2022-08-20T08:24:07;2.88;;;2.67;;
64052;SDS011;50299;49.524;8.536;2022-08-20T08:26:34;2.97;;;2.65;;
64052;SDS011;50299;49.524;8.536;2022-08-20T08:29:00;3.35;;;3.05;;
64052;SDS011;50299;49.524;8.536;2022-08-20T08:31:30;2.95;;;2.75;;
64052;SDS011;50299;49.524;8.536;2022-08-20T08:33:57;3.10;;;2.90;;
64052;SDS011;50299;49.524;8.536;2022-08-20T08:36:23;3.17;;;2.88;;
64052;SDS011;50299;49.524;8.536;2022-08-20T08:38:52;2.80;;;2.60;;
64052;SDS011;50299;49.524;8.536;2022-08-20T08:43:57;3.30;;;3.00;;
64052;SDS011;50299;49.524;8.536;2022-08-20T08:46:41;9.18;;;3.28;;
64052;SDS011;50299;49.524;8.536;2022-08-20T08:49:10;3.70;;;3.35;;
64052;SDS011;50299;49.524;8.536;2022-08-20T08:51:42;2.78;;;2.17;;
64052;SDS011;50299;49.524;8.536;2022-08-20T08:54:15;3.33;;;3.03;;
64052;SDS011;50299;49.524;8.536;2022-08-20T08:56:44;2.95;;;2.75;;
64052;SDS011;50299;49.524;8.536;2022-08-20T08:59:15;2.60;;;2.40;;
64052;SDS011;50299;49.524;8.536;2022-08-20T09:01:43;3.13;;;2.92;;
64052;SDS011;50299;49.524;8.536;2022-08-20T09:04:25;3.90;;;3.42;;
64052;SDS011;50299;49.524;8.536;2022-08-20T09:06:57;5.10;;;3.90;;
64052;SDS011;50299;49.524;8.536;2022-08-20T09:09:26;3.67;;;3.38;;
64052;SDS011;50299;49.524;8.536;2022-08-20T09:11:56;4.07;;;2.70;;
64052;SDS011;50299;49.524;8.536;2022-08-20T09:14:32;2.92;;;2.72;;
64052;SDS011;50299;49.524;8.536;2022-08-20T09:16:59;3.30;;;2.97;;
64052;SDS011;50299;49.524;8.536;2022-08-20T09:19:25;2.78;;;2.22;;
64052;SDS011;50299;49.524;8.536;2022-08-20T09:21:52;2.75;;;2.55;;
64052;SDS011;50299;49.524;8.536;2022-08-20T09:24:18;3.70;;;2.95;;
64052;SDS011;50299;49.524;8.536;2022-08-20T09:26:45;4.00;;;2.95;;
64052;SDS011;50299;49.524;8.536;2022-08-20T09:29:12;2.10;;;2.00;;
64052;SDS011;50299;49.524;8.536;2022-08-20T09:31:40;3.28;;;2.97;;
64052;SDS011;50299;49.524;8.536;2022-08-20T09:34:06;2.13;;;1.92;;
64052;SDS011;50299;49.524;8.536;2022-08-20T09:36:33;2.80;;;2.45;;
64052;SDS011;50299;49.524;8.536;2022-08-20T09:39:00;3.13;;;2.60;;
64052;SDS011;50299;49.524;8.536;2022-08-20T09:41:28;2.78;;;2.35;;
64052;SDS011;50299;49.524;8.536;2022-08-20T09:43:59;2.63;;;2.42;;
64052;SDS011;50299;49.524;8.536;2022-08-20T09:46:26;2.45;;;2.25;;
64052;SDS011;50299;49.524;8.536;2022-08-20T09:48:53;2.70;;;2.50;;
64052;SDS011;50299;49.524;8.536;2022-08-20T09:51:19;2.90;;;2.50;;
64052;SDS011;50299;49.524;8.536;2022-08-20T09:53:47;4.35;;;3.75;;
64052;SDS011;50299;49.524;8.536;2022-08-20T09:56:14;4.25;;;2.70;;
64052;SDS011;50299;49.524;8.536;2022-08-20T10:01:28;4.05;;;3.08;;
64052;SDS011;50299;49.524;8.536;2022-08-20T10:03:54;3.25;;;2.83;;
64052;SDS011;50299;49.524;8.536;2022-08-20T10:06:21;4.70;;;3.40;;
64052;SDS011;50299;49.524;8.536;2022-08-20T10:08:48;3.25;;;3.05;;
64052;SDS011;50299;49.524;8.536;2022-08-20T10:11:15;3.33;;;3.05;;
64052;SDS011;50299;49.524;8.536;2022-08-20T10:13:43;2.88;;;2.53;;
64052;SDS011;50299;49.524;8.536;2022-08-20T10:16:09;3.55;;;3.25;;
64052;SDS011;50299;49.524;8.536;2022-08-20T10:18:36;3.13;;;2.92;;
64052;SDS011;50299;49.524;8.536;2022-08-20T10:21:07;2.53;;;1.90;;
64052;SDS011;50299;49.524;8.536;2022-08-20T10:23:34;2.78;;;2.58;;
64052;SDS011;50299;49.524;8.536;2022-08-20T10:26:01;4.72;;;3.40;;
64052;SDS011;50299;49.524;8.536;2022-08-20T10:28:27;4.57;;;3.00;;
64052;SDS011;50299;49.524;8.536;2022-08-20T10:30:54;3.45;;;2.72;;
64052;SDS011;50299;49.524;8.536;2022-08-20T10:33:20;3.78;;;3.40;;
64052;SDS011;50299;49.524;8.536;2022-08-20T10:35:47;2.90;;;2.42;;
64052;SDS011;50299;49.524;8.536;2022-08-20T10:38:15;3.38;;;2.70;;
64052;SDS011;50299;49.524;8.536;2022-08-20T10:40:42;2.50;;;2.30;;
64052;SDS011;50299;49.524;8.536;2022-08-20T10:43:17;2.78;;;2.40;;
64052;SDS011;50299;49.524;8.536;2022-08-20T10:45:44;4.43;;;2.88;;
64052;SDS011;50299;49.524;8.536;2022-08-20T10:48:10;2.72;;;2.53;;
64052;SDS011;50299;49.524;8.536;2022-08-20T10:50:37;4.45;;;3.28;;
64052;SDS011;50299;49.524;8.536;2022-08-20T10:53:03;2.97;;;2.65;;
64052;SDS011;50299;49.524;8.536;2022-08-20T10:55:29;2.90;;;2.70;;
64052;SDS011;50299;49.524;8.536;2022-08-20T10:57:56;2.70;;;2.13;;
64052;SDS011;50299;49.524;8.536;2022-08-20T11:00:22;3.60;;;2.80;;
64052;SDS011;50299;49.524;8.536;2022-08-20T11:02:49;3.22;;;2.97;;
64052;SDS011;50299;49.524;8.536;2022-08-20T11:05:16;3.40;;;3.08;;
64052;SDS011;50299;49.524;8.536;2022-08-20T11:07:43;2.60;;;2.40;;
64052;SDS011;50299;49.524;8.536;2022-08-20T11:10:21;3.95;;;3.65;;
64052;SDS011;50299;49.524;8.536;2022-08-20T11:12:49;3.30;;;3.10;;
64052;SDS011;50299;49.524;8.536;2022-08-20T11:15:15;3.25;;;2.95;;
64052;SDS011;50299;49.524;8.536;2022-08-20T11:17:42;1.98;;;1.88;;
64052;SDS011;50299;49.524;8.536;2022-08-20T11:20:09;2.30;;;2.20;;
64052;SDS011;50299;49.524;8.536;2022-08-20T11:22:38;3.08;;;2.88;;
64052;SDS011;50299;49.524;8.536;2022-08-20T11:25:05;2.30;;;2.08;;
64052;SDS011;50299;49.524;8.536;2022-08-20T11:27:37;3.13;;;2.90;;
64052;SDS011;50299;49.524;8.536;2022-08-20T11:30:07;2.25;;;2.05;;
64052;SDS011;50299;49.524;8.536;2022-08-20T11:32:36;2.30;;;2.10;;
64052;SDS011;50299;49.524;8.536;2022-08-20T11:35:03;2.70;;;2.50;;
64052;SDS011;50299;49.524;8.536;2022-08-20T11:37:50;2.58;;;2.42;;
64052;SDS011;50299;49.524;8.536;2022-08-20T11:40:18;2.53;;;2.17;;
64052;SDS011;50299;49.524;8.536;2022-08-20T11:42:45;2.63;;;2.42;;
64052;SDS011;50299;49.524;8.536;2022-08-20T11:45:32;2.80;;;2.60;;
64052;SDS011;50299;49.524;8.536;2022-08-20T11:48:06;2.22;;;2.13;;
64052;SDS011;50299;49.524;8.536;2022-08-20T11:50:32;2.50;;;2.30;;
64052;SDS011;50299;49.524;8.536;2022-08-20T11:53:02;2.10;;;1.60;;
64052;SDS011;50299;49.524;8.536;2022-08-20T11:55:33;2.13;;;1.85;;
64052;SDS011;50299;49.524;8.536;2022-08-20T11:58:00;2.00;;;1.60;;
64052;SDS011;50299;49.524;8.536;2022-08-20T12:00:27;1.58;;;1.48;;
64052;SDS011;50299;49.524;8.536;2022-08-20T12:02:59;1.50;;;1.40;;
64052;SDS011;50299;49.524;8.536;2022-08-20T12:05:38;1.85;;;1.75;;
64052;SDS011;50299;49.524;8.536;2022-08-20T12:08:08;1.83;;;1.73;;
64052;SDS011;50299;49.524;8.536;2022-08-20T12:10:51;1.67;;;1.58;;
64052;SDS011;50299;49.524;8.536;2022-08-20T12:13:18;1.70;;;1.23;;
64052;SDS011;50299;49.524;8.536;2022-08-20T12:15:48;1.75;;;1.25;;
64052;SDS011;50299;49.524;8.536;2022-08-20T12:18:15;2.15;;;2.05;;
64052;SDS011;50299;49.524;8.536;2022-08-20T12:20:42;2.08;;;1.80;;
64052;SDS011;50299;49.524;8.536;2022-08-20T12:23:08;2.60;;;2.40;;
64052;SDS011;50299;49.524;8.536;2022-08-20T12:25:34;1.52;;;1.42;;
64052;SDS011;50299;49.524;8.536;2022-08-20T12:28:25;1.58;;;1.52;;
64052;SDS011;50299;49.524;8.536;2022-08-20T12:31:15;1.70;;;1.60;;
64052;SDS011;50299;49.524;8.536;2022-08-20T12:34:08;1.83;;;1.73;;
64052;SDS011;50299;49.524;8.536;2022-08-20T12:37:09;2.00;;;1.33;;
64052;SDS011;50299;49.524;8.536;2022-08-20T12:45:47;1.77;;;1.00;;
64052;SDS011;50299;49.524;8.536;2022-08-20T12:48:38;1.15;;;0.90;;
64052;SDS011;50299;49.524;8.536;2022-08-20T12:51:31;2.00;;;1.02;;
64052;SDS011;50299;49.524;8.536;2022-08-20T12:54:22;1.08;;;0.98;;
64052;SDS011;50299;49.524;8.536;2022-08-20T12:57:23;2.53;;;1.08;;
64052;SDS011;50299;49.524;8.536;2022-08-20T13:00:21;1.10;;;0.60;;
64052;SDS011;50299;49.524;8.536;2022-08-20T13:22:59;1.10;;;0.85;;
64052;SDS011;50299;49.524;8.536;2022-08-20T13:25:26;1.27;;;1.17;;
64052;SDS011;50299;49.524;8.536;2022-08-20T13:27:54;1.15;;;1.10;;
64052;SDS011;50299;49.524;8.536;2022-08-20T13:30:22;0.80;;;0.77;;
64052;SDS011;50299;49.524;8.536;2022-08-20T13:32:49;0.88;;;0.80;;
64052;SDS011;50299;49.524;8.536;2022-08-20T13:35:16;1.27;;;1.17;;
64052;SDS011;50299;49.524;8.536;2022-08-20T13:37:42;1.40;;;1.30;;
64052;SDS011;50299;49.524;8.536;2022-08-20T13:40:09;1.33;;;1.33;;
64052;SDS011;50299;49.524;8.536;2022-08-20T13:42:36;1.05;;;0.98;;
64052;SDS011;50299;49.524;8.536;2022-08-20T13:45:09;2.85;;;1.63;;
64052;SDS011;50299;49.524;8.536;2022-08-20T13:47:39;1.70;;;1.50;;
64052;SDS011;50299;49.524;8.536;2022-08-20T13:50:12;2.22;;;1.73;;
64052;SDS011;50299;49.524;8.536;2022-08-20T13:52:41;1.70;;;1.60;;
64052;SDS011;50299;49.524;8.536;2022-08-20T13:55:10;2.92;;;1.40;;
64052;SDS011;50299;49.524;8.536;2022-08-20T13:57:45;4.47;;;2.40;;
64052;SDS011;50299;49.524;8.536;2022-08-20T14:00:16;2.05;;;1.85;;
64052;SDS011;50299;49.524;8.536;2022-08-20T14:02:57;2.42;;;2.22;;
64052;SDS011;50299;49.524;8.536;2022-08-20T14:05:28;3.28;;;2.65;;
64052;SDS011;50299;49.524;8.536;2022-08-20T14:08:02;2.30;;;2.20;;
64052;SDS011;50299;49.524;8.536;2022-08-20T14:10:40;2.40;;;2.20;;
64052;SDS011;50299;49.524;8.536;2022-08-20T14:13:08;2.53;;;2.33;;
64052;SDS011;50299;49.524;8.536;2022-08-20T14:15:40;2.40;;;2.20;;
64052;SDS011;50299;49.524;8.536;2022-08-20T14:18:10;2.65;;;1.95;;
64052;SDS011;50299;49.524;8.536;2022-08-20T14:20:37;2.80;;;2.55;;
64052;SDS011;50299;49.524;8.536;2022-08-20T14:23:04;3.88;;;3.22;;
64052;SDS011;50299;49.524;8.536;2022-08-20T14:25:33;3.83;;;3.15;;
64052;SDS011;50299;49.524;8.536;2022-08-20T14:28:10;2.60;;;2.22;;
64052;SDS011;50299;49.524;8.536;2022-08-20T14:30:43;2.33;;;2.13;;
64052;SDS011;50299;49.524;8.536;2022-08-20T14:33:17;3.20;;;2.25;;
64052;SDS011;50299;49.524;8.536;2022-08-20T14:35:44;3.25;;;2.67;;
64052;SDS011;50299;49.524;8.536;2022-08-20T14:38:10;2.65;;;2.10;;
64052;SDS011;50299;49.524;8.536;2022-08-20T14:40:37;2.47;;;2.28;;
64052;SDS011;50299;49.524;8.536;2022-08-20T14:43:09;2.58;;;2.30;;
64052;SDS011;50299;49.524;8.536;2022-08-20T14:45:38;2.80;;;2.55;;
64052;SDS011;50299;49.524;8.536;2022-08-20T14:48:07;2.53;;;2.22;;
64052;SDS011;50299;49.524;8.536;2022-08-20T14:50:39;2.47;;;1.73;;
64052;SDS011;50299;49.524;8.536;2022-08-20T14:53:10;3.22;;;2.55;;
64052;SDS011;50299;49.524;8.536;2022-08-20T14:55:37;2.75;;;1.70;;
64052;SDS011;50299;49.524;8.536;2022-08-20T14:58:10;2.05;;;1.55;;
64052;SDS011;50299;49.524;8.536;2022-08-20T15:00:41;2.25;;;1.90;;
64052;SDS011;50299;49.524;8.536;2022-08-20T15:03:08;2.20;;;1.17;;
64052;SDS011;50299;49.524;8.536;2022-08-20T15:05:40;2.20;;;2.05;;
64052;SDS011;50299;49.524;8.536;2022-08-20T15:08:11;2.13;;;1.40;;
64052;SDS011;50299;49.524;8.536;2022-08-20T15:10:39;1.48;;;1.38;;
64052;SDS011;50299;49.524;8.536;2022-08-20T15:13:10;2.95;;;1.73;;
64052;SDS011;50299;49.524;8.536;2022-08-20T15:15:41;2.20;;;1.63;;
64052;SDS011;50299;49.524;8.536;2022-08-20T15:18:08;2.58;;;1.88;;
64052;SDS011;50299;49.524;8.536;2022-08-20T15:20:41;2.55;;;1.67;;
64052;SDS011;50299;49.524;8.536;2022-08-20T15:23:11;2.17;;;1.00;;
64052;SDS011;50299;49.524;8.536;2022-08-20T15:25:40;1.48;;;1.38;;
64052;SDS011;50299;49.524;8.536;2022-08-20T15:28:10;2.28;;;1.77;;
64052;SDS011;50299;49.524;8.536;2022-08-20T15:30:40;1.90;;;1.80;;
64052;SDS011;50299;49.524;8.536;2022-08-20T15:33:10;2.60;;;1.52;;
64052;SDS011;50299;49.524;8.536;2022-08-20T15:35:39;1.63;;;1.35;;
64052;SDS011;50299;49.524;8.536;2022-08-20T15:38:09;1.60;;;1.50;;
64052;SDS011;50299;49.524;8.536;2022-08-20T15:40:38;1.55;;;1.45;;
64052;SDS011;50299;49.524;8.536;2022-08-20T15:43:07;1.38;;;1.10;;
64052;SDS011;50299;49.524;8.536;2022-08-20T15:45:40;2.53;;;1.38;;